Time;durP1;ratioP1;P1;durP2;ratioP2;P2;SDS_P1;SDS_P2;PMS_P1;PMS_P2;Temp;Humidity;BMP_temperature;BMP_pressure;BME280_temperature;BME280_humidity;BME280_pressure;Samples;Min_cycle;Max_cycle;Signal;HPM_P1;HPM_P2
2024/01/03 00:00:05;;;;;;;5.50;2.50;;;;;;;-21.10;80.07;101731.81;10437083;28;20456;-67
2024/01/03 00:05:09;;;;;;;6.03;4.10;;;;;;;-21.29;80.13;101749.03;10441276;28;20037;-66
2024/01/03 00:10:27;;;;;;;5.78;3.30;;;;;;;-21.46;80.34;101738.31;10443027;28;20418;-66
2024/01/03 00:15:53;;;;;;;7.63;4.18;;;;;;;-21.64;80.44;101733.69;10430081;28;20037;-68
2024/01/03 00:20:57;;;;;;;8.07;5.05;;;;;;;-21.81;80.44;101727.28;10415946;28;20044;-67
2024/01/03 00:25:59;;;;;;;8.73;4.35;;;;;;;-21.80;80.52;101728.97;10432969;28;20032;-67
2024/01/03 00:31:01;;;;;;;10.55;4.93;;;;;;;-22.07;80.27;101727.25;10448252;28;20030;-67
2024/01/03 00:36:05;;;;;;;8.95;4.25;;;;;;;-22.08;80.70;101720.34;10417827;28;20041;-68
2024/01/03 00:41:09;;;;;;;7.35;4.35;;;;;;;-22.19;81.24;101725.91;10385005;28;20034;-69
2024/01/03 00:46:13;;;;;;;6.38;4.20;;;;;;;-22.30;81.59;101718.41;10427041;28;20050;-68
2024/01/03 00:51:16;;;;;;;5.45;2.72;;;;;;;-22.30;82.32;101710.63;10426370;28;20045;-68
2024/01/03 00:56:19;;;;;;;4.18;2.72;;;;;;;-22.39;82.82;101712.63;10424878;28;20064;-68
2024/01/03 01:01:22;;;;;;;7.18;2.80;;;;;;;-22.47;82.76;101699.00;10421587;28;20037;-68
2024/01/03 01:06:25;;;;;;;7.40;2.88;;;;;;;-22.40;83.27;101714.38;10440997;28;20052;-67
2024/01/03 01:11:27;;;;;;;4.90;2.80;;;;;;;-22.52;82.90;101712.16;10440467;28;20418;-67
2024/01/03 01:16:29;;;;;;;6.47;3.55;;;;;;;-22.51;83.05;101707.81;10405821;28;20041;-67
2024/01/03 01:21:31;;;;;;;7.15;3.85;;;;;;;-22.58;83.35;101712.31;10434079;28;20045;-67
2024/01/03 01:26:34;;;;;;;5.40;3.17;;;;;;;-22.48;83.10;101726.75;10439049;28;20045;-68
2024/01/03 01:31:36;;;;;;;6.82;3.40;;;;;;;-22.61;83.13;101717.59;10437163;28;20029;-67
2024/01/03 01:36:38;;;;;;;8.07;3.97;;;;;;;-22.64;82.78;101712.50;10439964;28;20041;-67
2024/01/03 01:41:40;;;;;;;5.03;3.30;;;;;;;-22.72;82.73;101707.53;10439238;28;20047;-67
2024/01/03 01:46:44;;;;;;;5.45;3.10;;;;;;;-22.70;82.80;101710.94;10441371;28;20513;-67
2024/01/03 01:51:47;;;;;;;8.25;3.88;;;;;;;-22.73;82.51;101713.63;10438877;28;20029;-66
2024/01/03 01:56:49;;;;;;;7.53;3.75;;;;;;;-22.77;82.89;101711.16;10438586;28;20041;-67
2024/01/03 02:01:53;;;;;;;5.40;3.75;;;;;;;-22.78;82.69;101722.44;10438700;28;20626;-67
2024/01/03 02:06:55;;;;;;;7.80;3.67;;;;;;;-23.04;81.79;101718.84;10440205;28;20048;-68
2024/01/03 02:11:57;;;;;;;7.47;4.22;;;;;;;-23.20;81.89;101706.31;10448301;28;20030;-67
2024/01/03 02:17:01;;;;;;;8.57;4.05;;;;;;;-23.20;81.86;101704.56;10444659;28;20041;-67
2024/01/03 02:22:04;;;;;;;7.65;4.35;;;;;;;-23.18;81.67;101702.78;10446306;28;20041;-66
2024/01/03 02:27:06;;;;;;;7.25;4.35;;;;;;;-23.16;81.54;101711.38;10447822;28;20563;-67
2024/01/03 02:32:08;;;;;;;8.43;4.47;;;;;;;-23.24;81.52;101710.75;10447380;28;20041;-67
2024/01/03 02:37:11;;;;;;;8.68;4.60;;;;;;;-23.47;80.83;101713.06;10446492;28;20420;-67
2024/01/03 02:42:14;;;;;;;8.15;4.65;;;;;;;-23.38;80.73;101710.25;10444161;28;20030;-67
2024/01/03 02:47:16;;;;;;;8.70;4.88;;;;;;;-23.57;80.61;101694.34;10437637;28;20056;-67
2024/01/03 02:52:18;;;;;;;8.00;4.72;;;;;;;-23.61;80.68;101687.50;10427674;28;20584;-68
2024/01/03 02:57:27;;;;;;;9.43;4.90;;;;;;;-23.64;81.15;101685.84;10428927;28;20029;-68
2024/01/03 03:02:30;;;;;;;10.05;4.13;;;;;;;-23.45;80.52;101693.13;10439077;28;20046;-67
2024/01/03 03:07:32;;;;;;;7.97;4.50;;;;;;;-23.37;81.38;101689.44;10417087;28;20049;-68
2024/01/03 03:12:34;;;;;;;7.35;4.22;;;;;;;-23.26;81.09;101694.31;10441207;28;20040;-67
2024/01/03 03:17:38;;;;;;;10.32;4.22;;;;;;;-23.38;80.43;101682.53;10424304;28;20430;-67
2024/01/03 03:22:40;;;;;;;8.93;4.45;;;;;;;-23.35;80.29;101681.59;10442752;28;20041;-66
2024/01/03 03:27:42;;;;;;;7.95;4.07;;;;;;;-23.30;80.19;101664.16;10446312;28;20057;-68
2024/01/03 03:32:45;;;;;;;7.68;4.63;;;;;;;-23.38;80.62;101666.13;10431020;28;20034;-67
2024/01/03 03:37:47;;;;;;;8.80;4.57;;;;;;;-23.37;80.46;101678.19;10425248;28;20057;-68
2024/01/03 03:42:50;;;;;;;6.65;4.60;;;;;;;-23.38;80.39;101689.47;10437905;28;20041;-67
2024/01/03 03:47:52;;;;;;;9.45;4.30;;;;;;;-23.31;80.14;101688.41;10443637;28;20058;-66
2024/01/03 03:52:54;;;;;;;8.15;4.75;;;;;;;-23.34;80.29;101694.53;10428612;28;20040;-68
2024/01/03 03:58:02;;;;;;;11.15;5.13;;;;;;;-23.33;80.32;101700.59;10403689;28;20045;-66
2024/01/03 04:03:07;;;;;;;9.95;3.90;;;;;;;-23.51;80.44;101707.13;10429701;28;20060;-68
2024/01/03 04:08:10;;;;;;;6.35;3.50;;;;;;;-23.59;80.19;101696.97;10423107;28;20413;-67
2024/01/03 04:13:12;;;;;;;4.93;3.22;;;;;;;-23.52;80.29;101700.22;10440401;28;20041;-68
2024/01/03 04:18:16;;;;;;;7.03;3.45;;;;;;;-23.55;80.77;101700.31;10437324;28;20528;-67
2024/01/03 04:23:18;;;;;;;6.28;3.45;;;;;;;-23.56;80.81;101689.06;10437186;28;20029;-67
2024/01/03 04:28:21;;;;;;;5.13;2.72;;;;;;;-23.68;80.30;101676.44;10409018;28;20044;-68
2024/01/03 04:33:24;;;;;;;7.57;3.22;;;;;;;-23.67;80.76;101669.50;10440276;28;20042;-68
2024/01/03 04:38:26;;;;;;;6.78;4.45;;;;;;;-23.58;80.29;101670.13;10439353;28;20038;-67
2024/01/03 04:43:29;;;;;;;5.85;3.20;;;;;;;-23.70;80.54;101660.03;10431107;28;20056;-67
2024/01/03 04:48:31;;;;;;;6.10;3.88;;;;;;;-23.53;80.59;101657.84;10409823;28;20050;-68
2024/01/03 04:53:37;;;;;;;6.97;4.03;;;;;;;-23.58;80.54;101662.34;10442081;28;20045;-67
2024/01/03 04:58:39;;;;;;;7.22;4.00;;;;;;;-23.56;80.32;101663.09;10432075;28;20037;-67
2024/01/03 05:03:42;;;;;;;6.65;3.65;;;;;;;-23.47;80.75;101666.34;10442208;28;20064;-67
2024/01/03 05:08:45;;;;;;;9.15;4.85;;;;;;;-23.53;80.79;101651.78;10438259;28;20417;-68
2024/01/03 05:13:47;;;;;;;8.85;4.10;;;;;;;-23.45;80.48;101655.03;10422989;28;20121;-67
2024/01/03 05:18:49;;;;;;;7.60;3.47;;;;;;;-23.32;80.64;101663.34;10435076;28;20052;-67
2024/01/03 05:23:51;;;;;;;5.85;4.03;;;;;;;-23.33;80.87;101674.63;10440058;28;20030;-68
2024/01/03 05:28:54;;;;;;;6.72;3.55;;;;;;;-23.26;80.93;101671.81;10439663;28;20041;-67
2024/01/03 05:33:56;;;;;;;6.32;3.47;;;;;;;-23.18;81.13;101668.16;10430702;28;20034;-67
2024/01/03 05:38:58;;;;;;;6.85;4.45;;;;;;;-23.15;80.87;101678.47;10436509;28;20042;-67
2024/01/03 05:44:01;;;;;;;7.97;4.18;;;;;;;-23.49;79.92;101678.50;10405520;28;20847;-69
2024/01/03 05:49:03;;;;;;;7.40;3.88;;;;;;;-23.52;79.58;101680.31;10423402;28;20061;-67
2024/01/03 05:54:05;;;;;;;8.43;5.00;;;;;;;-23.67;79.01;101679.88;10443181;28;20408;-68
2024/01/03 05:59:08;;;;;;;6.65;4.18;;;;;;;-23.46;80.14;101668.91;10423988;28;20045;-68
2024/01/03 06:04:10;;;;;;;6.45;4.15;;;;;;;-23.41;80.42;101668.78;10449020;28;20053;-67
2024/01/03 06:09:12;;;;;;;10.07;4.30;;;;;;;-23.37;80.12;101676.47;10445806;28;20054;-67
2024/01/03 06:14:15;;;;;;;6.35;3.72;;;;;;;-23.50;80.05;101676.81;10437024;28;20033;-67
2024/01/03 06:19:17;;;;;;;9.27;4.18;;;;;;;-23.52;79.97;101679.44;10447794;28;20041;-68
2024/01/03 06:24:20;;;;;;;7.95;4.00;;;;;;;-23.59;79.64;101672.75;10448660;28;20444;-67
2024/01/03 06:29:22;;;;;;;7.03;4.03;;;;;;;-23.50;80.09;101675.06;10444014;28;20681;-67
2024/01/03 06:34:24;;;;;;;8.70;4.18;;;;;;;-23.59;80.45;101667.56;10450351;28;20048;-66
2024/01/03 06:39:27;;;;;;;9.65;4.57;;;;;;;-23.59;80.20;101668.41;10450521;28;20041;-67
2024/01/03 06:44:29;;;;;;;8.68;4.32;;;;;;;-23.35;80.34;101663.44;10431939;28;20037;-67
2024/01/03 06:49:31;;;;;;;8.55;4.93;;;;;;;-23.24;80.53;101653.59;10411161;28;20033;-67
2024/01/03 06:54:35;;;;;;;6.93;4.05;;;;;;;-23.26;80.60;101661.41;10437279;28;20041;-67
2024/01/03 06:59:37;;;;;;;9.90;4.93;;;;;;;-23.08;81.14;101661.81;10445271;28;20037;-67
2024/01/03 07:04:40;;;;;;;9.20;4.70;;;;;;;-22.97;81.55;101646.78;10444292;28;20429;-67
2024/01/03 07:09:43;;;;;;;8.43;4.32;;;;;;;-22.84;81.12;101642.94;10446347;28;20049;-67
2024/01/03 07:14:45;;;;;;;10.20;4.15;;;;;;;-22.49;81.21;101641.00;10447066;28;20044;-68
2024/01/03 07:19:48;;;;;;;9.88;4.55;;;;;;;-22.50;81.32;101636.69;10441837;28;20048;-67
2024/01/03 07:24:50;;;;;;;8.13;4.10;;;;;;;-22.53;81.52;101639.38;10432084;28;20578;-67
2024/01/03 07:29:53;;;;;;;8.13;4.10;;;;;;;-22.38;81.44;101642.38;10404584;28;20045;-68
2024/01/03 07:34:56;;;;;;;6.82;3.90;;;;;;;-22.22;81.54;101652.28;10440503;28;20049;-68
2024/01/03 07:39:58;;;;;;;7.38;3.85;;;;;;;-22.17;81.70;101645.19;10445541;28;20702;-68
2024/01/03 07:45:01;;;;;;;10.23;4.57;;;;;;;-21.44;79.68;101642.72;10445191;28;20067;-68
2024/01/03 07:50:04;;;;;;;8.02;3.70;;;;;;;-21.32;79.67;101642.28;10441054;28;20041;-68
2024/01/03 07:55:07;;;;;;;8.13;4.38;;;;;;;-21.43;78.46;101639.19;10444794;28;20050;-68
2024/01/03 08:00:10;;;;;;;5.57;3.15;;;;;;;-20.26;77.05;101632.16;10443712;28;20188;-68
2024/01/03 08:05:13;;;;;;;6.30;3.40;;;;;;;-20.41;75.26;101648.44;10429041;28;20029;-67
2024/01/03 08:10:16;;;;;;;4.10;2.65;;;;;;;-21.23;75.32;101646.28;10440612;28;20040;-68
2024/01/03 08:15:18;;;;;;;4.60;2.65;;;;;;;-21.33;75.88;101651.03;10443876;28;20044;-67
2024/01/03 08:20:21;;;;;;;5.55;3.10;;;;;;;-22.05;77.09;101642.19;10434321;28;20037;-68
2024/01/03 08:25:23;;;;;;;5.13;2.97;;;;;;;-22.08;77.81;101632.72;10434645;28;20029;-67
2024/01/03 08:30:26;;;;;;;5.68;2.92;;;;;;;-21.93;78.92;101639.16;10416456;28;20581;-68
2024/01/03 08:35:28;;;;;;;5.45;2.20;;;;;;;-21.95;78.76;101627.94;10413770;28;20044;-68
2024/01/03 08:40:31;;;;;;;4.53;2.50;;;;;;;-21.78;78.50;101620.44;10428252;28;20041;-68
2024/01/03 08:45:33;;;;;;;3.65;2.10;;;;;;;-22.12;78.32;101628.53;10438442;28;20050;-68
2024/01/03 08:50:36;;;;;;;4.15;1.83;;;;;;;-22.22;78.98;101610.66;10423609;28;20037;-67
2024/01/03 08:55:38;;;;;;;3.00;1.80;;;;;;;-22.23;79.65;101619.34;10400181;28;20037;-68
2024/01/03 09:00:43;;;;;;;2.83;1.80;;;;;;;-22.24;79.68;101604.66;10418891;28;20041;-68
2024/01/03 09:05:45;;;;;;;3.60;2.60;;;;;;;-22.20;79.40;101601.06;10425842;28;20042;-68
2024/01/03 09:10:50;;;;;;;7.68;3.40;;;;;;;-22.20;78.85;101619.28;10429005;28;20038;-69
2024/01/03 09:15:54;;;;;;;3.05;2.05;;;;;;;-22.72;78.57;101637.34;10410848;28;20042;-69
2024/01/03 09:20:58;;;;;;;8.43;3.40;;;;;;;-23.17;78.10;101631.75;10401095;28;20124;-69
2024/01/03 09:26:04;;;;;;;3.17;2.08;;;;;;;-23.32;77.91;101626.97;10410920;28;20525;-68
2024/01/03 09:31:07;;;;;;;4.75;2.50;;;;;;;-23.27;78.20;101615.56;10456835;28;20045;-66
2024/01/03 09:36:20;;;;;;;5.88;2.78;;;;;;;-23.14;78.23;101623.03;10441969;28;20049;-65
2024/01/03 09:41:22;;;;;;;2.75;1.17;;;;;;;-22.93;77.83;101601.59;10441960;28;20030;-68
2024/01/03 09:46:25;;;;;;;5.97;3.38;;;;;;;-23.29;76.59;101624.28;10440820;28;20060;-67
2024/01/03 09:51:28;;;;;;;1.02;0.98;;;;;;;-23.43;75.63;101610.84;10443121;28;20041;-68
2024/01/03 09:56:30;;;;;;;1.70;1.08;;;;;;;-23.36;75.80;101591.59;10442600;28;20041;-67
2024/01/03 10:01:32;;;;;;;4.90;1.98;;;;;;;-23.49;74.40;101598.03;10429913;28;20046;-67
2024/01/03 10:06:51;;;;;;;4.32;2.40;;;;;;;-23.75;74.14;101607.41;10440055;28;20398;-68
2024/01/03 10:11:53;;;;;;;2.17;1.35;;;;;;;-23.73;73.77;101599.59;10440292;28;20414;-67
2024/01/03 10:17:08;;;;;;;3.78;2.67;;;;;;;-23.76;73.46;101582.34;10442825;28;20235;-67
2024/01/03 10:22:10;;;;;;;4.32;2.58;;;;;;;-23.79;73.64;101586.75;10453130;28;20049;-69
2024/01/03 10:27:12;;;;;;;4.78;2.17;;;;;;;-23.86;72.60;101586.94;10423177;28;20053;-68
2024/01/03 10:32:15;;;;;;;6.57;2.65;;;;;;;-23.75;73.11;101594.44;10420167;28;20049;-67
2024/01/03 10:37:17;;;;;;;4.03;1.98;;;;;;;-23.67;72.41;101569.13;10439769;28;20516;-67
2024/01/03 10:42:20;;;;;;;3.92;2.63;;;;;;;-23.46;73.27;101565.03;10445488;28;20041;-68
2024/01/03 10:47:23;;;;;;;6.50;3.08;;;;;;;-23.47;72.62;101568.53;10442220;28;20076;-67
2024/01/03 10:52:27;;;;;;;6.32;2.45;;;;;;;-23.42;73.34;101584.84;10447276;28;20033;-67
2024/01/03 10:57:32;;;;;;;5.15;2.65;;;;;;;-23.59;72.34;101605.28;10445662;28;20071;-68
2024/01/03 11:02:45;;;;;;;7.15;2.67;;;;;;;-23.89;72.43;101571.44;10429065;28;20045;-67
2024/01/03 11:07:52;;;;;;;5.38;3.00;;;;;;;-23.99;72.29;101577.75;10444662;28;20068;-69
2024/01/03 11:12:56;;;;;;;6.22;2.63;;;;;;;-23.97;73.40;101581.16;10444664;28;20044;-67
2024/01/03 11:17:58;;;;;;;6.45;2.92;;;;;;;-23.82;73.21;101564.34;10443873;28;20038;-67
2024/01/03 11:23:02;;;;;;;5.75;2.90;;;;;;;-23.64;73.31;101561.25;10405137;28;20041;-67
2024/01/03 11:28:30;;;;;;;5.13;2.67;;;;;;;-23.64;73.81;101566.44;10422781;28;20052;-67
2024/01/03 11:33:38;;;;;;;7.25;2.97;;;;;;;-23.65;73.97;101550.91;10444149;28;20056;-68
2024/01/03 11:38:42;;;;;;;8.80;2.57;;;;;;;-23.60;73.64;101549.91;10443810;28;20045;-68
2024/01/03 11:43:46;;;;;;;5.82;2.75;;;;;;;-23.49;73.05;101546.97;10453911;28;20033;-68
2024/01/03 11:48:49;;;;;;;2.03;1.65;;;;;;;-23.47;73.31;101552.94;10444215;28;20053;-69
2024/01/03 11:53:52;;;;;;;2.67;1.65;;;;;;;-23.54;73.54;101552.28;10443603;28;20041;-68
2024/01/03 11:58:55;;;;;;;2.72;1.58;;;;;;;-23.54;73.64;101541.91;10444773;28;20594;-67
2024/01/03 12:04:12;;;;;;;2.95;2.15;;;;;;;-23.48;73.20;101548.66;10444595;28;20053;-69
2024/01/03 12:09:14;;;;;;;9.35;2.70;;;;;;;-23.56;73.59;101533.31;10443581;28;20037;-67
2024/01/03 12:14:17;;;;;;;2.33;2.08;;;;;;;-23.59;73.29;101536.03;10439537;28;20501;-67
2024/01/03 12:19:24;;;;;;;1.02;1.02;;;;;;;-23.60;72.87;101536.94;10442561;28;20029;-69
2024/01/03 12:24:40;;;;;;;5.57;2.08;;;;;;;-23.52;73.16;101528.88;10443801;28;20090;-68
2024/01/03 12:29:43;;;;;;;1.27;1.02;;;;;;;-23.58;72.96;101521.31;10444205;28;20520;-67
2024/01/03 12:34:47;;;;;;;3.78;2.10;;;;;;;-23.62;73.10;101524.84;10434143;28;20497;-67
2024/01/03 12:39:50;;;;;;;1.70;1.00;;;;;;;-23.92;72.59;101524.81;10425106;28;20041;-67
2024/01/03 12:44:52;;;;;;;8.48;2.63;;;;;;;-24.08;73.20;101510.56;10430204;28;20049;-67
2024/01/03 12:49:55;;;;;;;1.50;1.40;;;;;;;-24.05;73.13;101502.69;10431394;28;20524;-67
2024/01/03 12:54:58;;;;;;;5.03;2.45;;;;;;;-24.03;73.88;101505.25;10425227;28;20041;-67
2024/01/03 13:00:01;;;;;;;1.90;1.35;;;;;;;-24.18;73.77;101503.91;10439246;28;20033;-67
2024/01/03 13:05:06;;;;;;;4.05;2.53;;;;;;;-24.13;73.33;101489.06;10438839;28;20041;-69
2024/01/03 13:10:10;;;;;;;5.28;2.50;;;;;;;-24.02;73.82;101493.97;10437510;28;20453;-69
2024/01/03 13:15:12;;;;;;;5.70;1.92;;;;;;;-24.10;73.98;101493.34;10435755;28;20044;-69
2024/01/03 13:20:14;;;;;;;3.33;2.55;;;;;;;-24.02;74.14;101500.00;10433730;28;20044;-66
2024/01/03 13:25:17;;;;;;;9.15;3.10;;;;;;;-23.94;74.86;101487.69;10431932;28;20038;-66
2024/01/03 13:30:21;;;;;;;6.22;2.05;;;;;;;-23.99;74.47;101478.31;10441491;28;20049;-68
2024/01/03 13:35:23;;;;;;;1.30;1.15;;;;;;;-23.95;74.54;101480.78;10423169;28;20413;-69
2024/01/03 13:40:25;;;;;;;3.75;2.78;;;;;;;-23.91;74.08;101471.19;10432709;28;20033;-68
2024/01/03 13:45:28;;;;;;;2.72;1.48;;;;;;;-23.81;74.58;101484.75;10403527;28;20156;-67
2024/01/03 13:50:30;;;;;;;1.08;1.02;;;;;;;-23.73;74.46;101472.41;10431321;28;20041;-67
2024/01/03 13:55:32;;;;;;;2.08;1.35;;;;;;;-23.66;74.48;101476.53;10420190;28;20041;-67
2024/01/03 14:00:35;;;;;;;1.80;1.70;;;;;;;-23.57;74.34;101473.69;10435636;28;20052;-67
2024/01/03 14:05:37;;;;;;;5.95;2.08;;;;;;;-23.63;74.53;101466.06;10439001;28;20410;-68
2024/01/03 14:10:39;;;;;;;2.60;2.03;;;;;;;-23.46;75.13;101458.59;10412653;28;20414;-68
2024/01/03 14:15:42;;;;;;;4.85;1.50;;;;;;;-23.46;75.22;101468.13;10423204;28;20048;-67
2024/01/03 14:20:44;;;;;;;2.50;1.17;;;;;;;-23.55;75.32;101477.91;10440898;28;20520;-68
2024/01/03 14:25:46;;;;;;;6.60;2.65;;;;;;;-23.62;75.58;101468.59;10423903;28;20057;-70
2024/01/03 14:30:49;;;;;;;7.18;1.90;;;;;;;-23.56;75.54;101471.00;10426894;28;20040;-66
2024/01/03 14:35:52;;;;;;;6.63;2.22;;;;;;;-23.52;75.50;101475.22;10413859;28;20042;-67
2024/01/03 14:40:55;;;;;;;6.80;2.72;;;;;;;-23.48;75.32;101469.91;10431373;28;20528;-65
2024/01/03 14:45:59;;;;;;;1.85;1.45;;;;;;;-23.44;75.83;101450.75;10446382;28;20053;-66
2024/01/03 14:51:07;;;;;;;3.83;1.40;;;;;;;-23.42;75.55;101456.78;10445639;28;20037;-70
2024/01/03 14:56:11;;;;;;;6.05;2.40;;;;;;;-23.54;75.88;101470.97;10440910;28;20029;-70
2024/01/03 15:01:16;;;;;;;4.00;1.60;;;;;;;-23.48;76.48;101455.19;10437038;28;20493;-68
2024/01/03 15:06:20;;;;;;;3.92;2.03;;;;;;;-23.62;76.39;101462.56;10431452;28;20041;-68
2024/01/03 15:11:22;;;;;;;1.88;1.38;;;;;;;-23.70;76.74;101461.94;10436224;28;20460;-67
2024/01/03 15:16:24;;;;;;;9.50;2.92;;;;;;;-23.82;76.51;101478.72;10420935;28;20044;-68
2024/01/03 15:21:27;;;;;;;5.85;3.05;;;;;;;-23.79;76.58;101459.59;10428608;28;20034;-68
2024/01/03 15:26:30;;;;;;;3.92;1.98;;;;;;;-23.77;76.43;101463.00;10428946;28;20034;-66
2024/01/03 15:31:33;;;;;;;4.60;2.53;;;;;;;-23.87;76.81;101459.84;10440179;28;20033;-64
2024/01/03 15:36:38;;;;;;;3.75;2.08;;;;;;;-23.90;75.89;101471.16;10439785;28;20048;-67
2024/01/03 15:41:40;;;;;;;3.33;1.55;;;;;;;-23.88;75.42;101458.97;10439126;28;20521;-70
2024/01/03 15:46:42;;;;;;;6.05;2.83;;;;;;;-23.79;75.47;101462.19;10445094;28;20053;-64
2024/01/03 15:52:07;;;;;;;7.65;3.00;;;;;;;-23.92;75.70;101470.34;10440528;28;20784;-65
2024/01/03 15:57:09;;;;;;;7.63;2.95;;;;;;;-23.97;75.56;101468.75;10434613;28;20560;-65
2024/01/03 16:02:13;;;;;;;6.45;2.45;;;;;;;-23.94;75.81;101463.50;10427878;28;20034;-66
2024/01/03 16:07:15;;;;;;;5.10;2.22;;;;;;;-23.86;75.42;101462.38;10406187;28;20050;-66
2024/01/03 16:12:18;;;;;;;8.20;2.83;;;;;;;-23.86;75.63;101471.91;10412246;28;20534;-65
2024/01/03 16:17:20;;;;;;;6.15;2.03;;;;;;;-23.80;75.51;101466.53;10408605;28;20037;-66
2024/01/03 16:22:24;;;;;;;4.85;2.45;;;;;;;-23.76;75.97;101450.00;10409160;28;20053;-64
2024/01/03 16:27:27;;;;;;;5.63;2.50;;;;;;;-23.71;75.89;101453.31;10412287;28;20037;-67
2024/01/03 16:32:29;;;;;;;2.92;1.52;;;;;;;-23.83;75.85;101449.31;10436372;28;20116;-66
2024/01/03 16:37:31;;;;;;;4.30;2.25;;;;;;;-23.92;75.64;101439.22;10436438;28;20033;-67
2024/01/03 16:42:38;;;;;;;7.68;1.92;;;;;;;-23.99;75.68;101450.63;10439798;28;20049;-66
2024/01/03 16:47:42;;;;;;;3.95;1.50;;;;;;;-24.12;75.49;101444.09;10429274;28;20417;-64
2024/01/03 16:52:45;;;;;;;3.20;1.85;;;;;;;-24.17;74.94;101453.75;10444392;28;20044;-63
2024/01/03 16:57:48;;;;;;;3.13;2.00;;;;;;;-24.21;75.42;101444.34;10439468;28;20041;-66
2024/01/03 17:02:51;;;;;;;4.82;2.42;;;;;;;-24.31;75.32;101432.53;10428323;28;20044;-65
2024/01/03 17:07:54;;;;;;;2.97;1.70;;;;;;;-24.21;76.19;101429.63;10439810;28;20041;-63
2024/01/03 17:12:56;;;;;;;8.48;2.20;;;;;;;-24.28;75.92;101417.75;10413321;28;20034;-65
2024/01/03 17:17:58;;;;;;;6.53;4.05;;;;;;;-24.30;75.44;101419.53;10426824;28;20041;-66
2024/01/03 17:23:01;;;;;;;8.05;4.25;;;;;;;-24.25;75.99;101427.19;10409798;28;20513;-64
2024/01/03 17:28:03;;;;;;;8.43;3.55;;;;;;;-24.21;76.39;101428.78;10420478;28;20045;-66
2024/01/03 17:33:06;;;;;;;4.85;2.13;;;;;;;-24.19;76.18;101432.19;10420483;28;20036;-69
2024/01/03 17:38:09;;;;;;;3.92;1.75;;;;;;;-24.15;76.00;101423.44;10417815;28;20069;-70
2024/01/03 17:43:11;;;;;;;3.60;1.70;;;;;;;-24.11;75.42;101422.47;10428266;28;20041;-69
2024/01/03 17:48:15;;;;;;;2.78;1.80;;;;;;;-24.16;75.90;101417.38;10439034;28;20057;-68
2024/01/03 17:53:17;;;;;;;2.38;1.77;;;;;;;-24.11;76.03;101429.41;10436403;28;20029;-69
2024/01/03 17:58:21;;;;;;;4.90;2.30;;;;;;;-24.08;76.16;101424.97;10426114;28;20344;-69
2024/01/03 18:03:33;;;;;;;5.53;2.00;;;;;;;-24.05;75.98;101414.50;10416964;28;20045;-69
2024/01/03 18:08:36;;;;;;;5.22;1.92;;;;;;;-24.11;76.06;101412.09;10438991;28;20048;-70
2024/01/03 18:13:39;;;;;;;7.57;2.97;;;;;;;-24.05;76.31;101416.25;10445052;28;20045;-66
2024/01/03 18:18:41;;;;;;;5.53;2.30;;;;;;;-23.97;76.41;101407.34;10448152;28;20048;-67
2024/01/03 18:23:43;;;;;;;4.93;2.15;;;;;;;-23.89;76.54;101399.34;10423840;28;20038;-66
2024/01/03 18:28:46;;;;;;;8.15;2.78;;;;;;;-23.80;75.79;101393.03;10435145;28;20045;-67
2024/01/03 18:33:48;;;;;;;3.08;1.20;;;;;;;-23.67;76.45;101376.22;10425871;28;20095;-67
2024/01/03 18:38:50;;;;;;;2.13;1.08;;;;;;;-23.67;76.27;101382.25;10433663;28;20132;-66
2024/01/03 18:43:53;;;;;;;4.05;1.55;;;;;;;-23.65;76.69;101377.84;10444830;28;20140;-65
2024/01/03 18:48:55;;;;;;;2.85;1.67;;;;;;;-23.58;75.55;101388.91;10427565;28;20049;-65
2024/01/03 18:53:57;;;;;;;4.63;1.88;;;;;;;-23.55;75.86;101375.81;10411231;28;20034;-65
2024/01/03 18:59:00;;;;;;;4.60;2.10;;;;;;;-23.64;75.81;101395.13;10430889;28;20037;-65
2024/01/03 19:04:03;;;;;;;3.65;2.03;;;;;;;-23.63;75.21;101376.06;10434680;28;20408;-65
2024/01/03 19:09:06;;;;;;;6.18;1.98;;;;;;;-23.67;75.48;101355.44;10458912;28;20052;-66
2024/01/03 19:14:08;;;;;;;4.57;2.72;;;;;;;-23.60;75.85;101370.81;10432645;28;20500;-65
2024/01/03 19:19:10;;;;;;;2.58;1.48;;;;;;;-23.55;75.59;101363.69;10432048;28;20046;-65
2024/01/03 19:24:13;;;;;;;3.55;1.90;;;;;;;-23.48;75.76;101369.53;10444360;28;20040;-66
2024/01/03 19:29:15;;;;;;;5.75;2.53;;;;;;;-23.52;75.56;101362.72;10443311;28;20041;-66
2024/01/03 19:34:19;;;;;;;6.63;2.35;;;;;;;-23.66;75.35;101364.94;10442659;28;20034;-65
2024/01/03 19:39:22;;;;;;;5.93;2.30;;;;;;;-23.66;75.34;101342.41;10441240;28;20041;-66
2024/01/03 19:44:24;;;;;;;4.78;2.05;;;;;;;-23.65;75.13;101338.91;10430273;28;20418;-65
2024/01/03 19:49:26;;;;;;;5.97;3.08;;;;;;;-23.66;75.45;101334.63;10436129;28;20061;-64
2024/01/03 19:54:29;;;;;;;4.97;2.92;;;;;;;-23.67;75.07;101339.88;10421429;28;20506;-67
2024/01/03 19:59:31;;;;;;;5.85;2.47;;;;;;;-23.58;75.45;101327.47;10427740;28;20056;-66
2024/01/03 20:04:39;;;;;;;2.78;1.70;;;;;;;-23.53;75.71;101320.34;10430324;28;20425;-66
2024/01/03 20:09:41;;;;;;;4.13;1.90;;;;;;;-23.44;75.57;101316.59;10431976;28;20048;-66
2024/01/03 20:14:44;;;;;;;2.08;1.45;;;;;;;-23.33;76.33;101305.88;10426774;28;20033;-65
2024/01/03 20:19:46;;;;;;;4.00;2.13;;;;;;;-23.34;75.91;101310.22;10425967;28;20046;-66
2024/01/03 20:25:04;;;;;;;2.73;1.30;;;;;;;-23.25;75.75;101298.66;10396476;28;20052;-67
2024/01/03 20:30:10;;;;;;;2.30;1.45;;;;;;;-23.20;75.85;101298.53;10438411;28;20048;-66
2024/01/03 20:35:12;;;;;;;3.92;1.80;;;;;;;-23.21;76.08;101302.88;10417182;28;20037;-66
2024/01/03 20:40:15;;;;;;;2.65;1.10;;;;;;;-23.09;76.18;101301.59;10427184;28;20056;-66
2024/01/03 20:45:17;;;;;;;4.00;2.08;;;;;;;-23.06;75.90;101296.31;10438683;28;20041;-65
2024/01/03 20:50:20;;;;;;;2.40;1.50;;;;;;;-22.99;75.93;101303.84;10431719;28;20037;-66
2024/01/03 20:55:31;;;;;;;3.85;1.98;;;;;;;-22.88;76.38;101306.09;10434308;28;20563;-66
2024/01/03 21:00:35;;;;;;;1.02;0.88;;;;;;;-22.98;76.05;101295.13;10426913;28;20049;-67
2024/01/03 21:05:37;;;;;;;2.88;1.35;;;;;;;-22.98;75.56;101308.13;10420548;28;20045;-66
2024/01/03 21:10:40;;;;;;;2.08;1.45;;;;;;;-23.02;75.77;101288.34;10438835;28;20033;-67
2024/01/03 21:15:43;;;;;;;0.47;0.47;;;;;;;-22.99;75.81;101292.59;10427300;28;20508;-67
2024/01/03 21:20:46;;;;;;;3.28;1.55;;;;;;;-23.04;75.60;101295.38;10411868;28;20417;-66
2024/01/03 21:25:48;;;;;;;3.20;0.75;;;;;;;-23.09;75.83;101289.44;10430835;28;20524;-67
2024/01/03 21:30:51;;;;;;;2.95;1.50;;;;;;;-23.16;75.98;101297.53;10418244;28;20041;-67
2024/01/03 21:35:54;;;;;;;3.33;1.38;;;;;;;-23.33;75.28;101296.34;10420250;28;20050;-65
2024/01/03 21:40:57;;;;;;;2.83;1.70;;;;;;;-23.50;75.64;101295.19;10427291;28;20045;-64
2024/01/03 21:46:00;;;;;;;3.08;2.15;;;;;;;-23.50;75.72;101283.06;10433129;28;20051;-67
2024/01/03 21:51:03;;;;;;;3.15;1.50;;;;;;;-23.63;75.42;101299.94;10426500;28;20043;-68
2024/01/03 21:56:05;;;;;;;4.38;1.42;;;;;;;-23.72;75.21;101271.69;10433201;28;20038;-67
2024/01/03 22:01:08;;;;;;;3.83;2.03;;;;;;;-23.75;75.36;101274.41;10431736;28;20045;-65
2024/01/03 22:06:17;;;;;;;6.32;2.50;;;;;;;-23.73;75.16;101270.84;10433084;28;20044;-66
2024/01/03 22:11:20;;;;;;;1.77;1.42;;;;;;;-23.79;75.65;101260.66;10439015;28;20052;-64
2024/01/03 22:16:22;;;;;;;2.90;1.95;;;;;;;-23.89;75.07;101259.25;10436150;28;20030;-64
2024/01/03 22:21:27;;;;;;;3.35;1.90;;;;;;;-24.00;75.60;101251.81;10427443;28;20041;-64
2024/01/03 22:26:29;;;;;;;4.95;2.13;;;;;;;-24.05;75.72;101258.03;10438620;28;20040;-64
2024/01/03 22:31:33;;;;;;;1.63;1.20;;;;;;;-24.10;75.40;101236.59;10442784;28;20041;-64
2024/01/03 22:36:35;;;;;;;4.72;1.88;;;;;;;-24.20;75.35;101236.88;10446558;28;20121;-65
2024/01/03 22:41:40;;;;;;;3.20;1.67;;;;;;;-24.24;76.15;101237.84;10442727;28;20565;-65
2024/01/03 22:46:44;;;;;;;4.38;2.17;;;;;;;-24.32;75.91;101229.47;10432986;28;20045;-64
2024/01/03 22:51:46;;;;;;;7.68;2.38;;;;;;;-24.36;75.52;101258.13;10408697;28;20046;-65
2024/01/03 22:56:49;;;;;;;8.05;2.78;;;;;;;-24.45;75.04;101243.72;10435915;28;20037;-67